M I D A S
Marine Information and Data Acquisition System
Tripno 128 of the Zeeleeuw from 2001-05-10 09:20:00 to 2001-05-10 13:55:00
Back to CruiseResearch ActivitiesStationsMapUnderway DataData graphs

EquipmentUnitsComments
TimeDGPSUTC
LatitudeDGPSDM.mWGS84
LongitudeDGPSDM.mWGS84
SpeedMeteo Stationm/sRelative wind speed
DirectionMeteo StationdegRelative wind direction
TemperatureMeteo Stationdeg CelciusAir temperature
PressureMeteo StationPaAtmospheric pressure
HumidityMeteo Station%Relative humidity
Missing or incorrect values are displayed as -999
Metereological data collected by the RV Zeeleeuw from 2001-05-10 09:20:00 to 2001-05-10 13:55:00
Time Latitude Longitude Speed Direction Temperature Pressure Humidity
2001-05-10 09:31 51°9.694 2°39.748 -999 -999 18.9 101690 64
2001-05-10 09:32 51°9.697 2°39.78 -999 -999 18.7 101690 65
2001-05-10 09:33 51°9.707 2°39.826 -999 -999 18.7 101690 65
2001-05-10 09:34 51°9.717 2°39.882 -999 -999 18.6 101680 64
2001-05-10 09:35 51°9.728 2°39.942 -999 -999 17.8 101690 66
2001-05-10 09:36 51°9.739 2°40 -999 -999 17.5 101690 69
2001-05-10 09:37 51°9.749 2°40.054 -999 -999 17.7 101680 71
2001-05-10 09:38 51°9.76 2°40.108 -999 -999 18 101690 68
2001-05-10 10:31 51°11.64 2°45.79 -999 -999 14.3 101680 82
2001-05-10 10:35 51°11.847 2°46.587 -999 -999 14.4 101680 82
2001-05-10 10:36 51°11.902 2°46.811 -999 -999 14.6 101670 81
2001-05-10 10:37 51°11.955 2°47.036 -999 -999 14.7 101680 80
2001-05-10 10:38 51°12.015 2°47.257 -999 -999 14.7 101680 79
2001-05-10 10:39 51°12.085 2°47.471 -999 -999 14.8 101680 79
2001-05-10 10:40 51°12.155 2°47.688 -999 -999 14.7 101680 79
2001-05-10 10:41 51°12.226 2°47.907 -999 -999 14.7 101680 80
2001-05-10 10:42 51°12.29 2°48.131 -999 -999 14.9 101680 80
2001-05-10 10:43 51°12.366 2°48.352 -999 -999 15 101680 79
2001-05-10 10:44 51°12.436 2°48.583 -999 -999 15 101680 79
2001-05-10 11:12 51°14.332 2°54.065 -999 -999 15.1 101670 78
2001-05-10 11:13 51°14.334 2°54.11 -999 -999 15.3 101660 78
2001-05-10 11:14 51°14.334 2°54.15 -999 -999 15.3 101670 78
2001-05-10 11:15 51°14.336 2°54.19 -999 -999 15.3 101660 77
2001-05-10 11:16 51°14.337 2°54.228 -999 -999 15.3 101660 77
2001-05-10 11:17 51°14.338 2°54.267 -999 -999 15.2 101660 77
2001-05-10 11:18 51°14.34 2°54.305 -999 -999 15.1 101660 78
2001-05-10 11:19 51°14.343 2°54.342 -999 -999 15.1 101660 79
2001-05-10 11:20 51°14.344 2°54.379 -999 -999 15.1 101660 79
2001-05-10 11:21 51°14.359 2°54.488 -999 -999 15.1 101650 79
2001-05-10 11:22 51°14.402 2°54.665 -999 -999 15.4 101650 80
2001-05-10 11:23 51°14.446 2°54.878 -999 -999 15.5 101650 77
2001-05-10 11:24 51°14.415 2°55.116 -999 -999 15.3 101650 78
2001-05-10 11:25 51°14.321 2°55.315 -999 -999 15.2 101660 79
2001-05-10 11:26 51°14.23 2°55.446 -999 -999 15.3 101660 80
2001-05-10 11:27 51°14.123 2°55.517 -999 -999 15.4 101660 81